Atair — DBBI — position and weather

sailwx.info

Track history (hours):
 
Tides and Currents Weather Stations Pressure Air Temp Water Temp Dewpoint Dewpoint Depression Visibility Wind Speed Wind Dir Waves Ship Positions

Oceanographic research ship Atair (Germany)

Detailed information on ship capabilities available from University of Delaware's Ocean Information Center.

Last reported at 2014-Nov-27 20:00 UTC. Time now 2014-Nov-27 20:40 UTC.
Position N 53°36' E 009°30'.

Length 51.4 m; beam 11.4 m; draft 3.5 m.

MMSI: 211223296.

Wind from 110 at 19 knots

Barometer 1013.5 mb
Air temperature 3.8 ° C
Dewpoint 1.1 ° C
Water temperature 8.2 ° C

Date/timePositionNaut miles runAvg speedWind from/ knotsBaromVisibWave heightAir tempDewpointWater temp
2014-Nov-27 20:00N 53°36' E 009°30'0 0.0 110 / 191013.5 3.8 1.1 8.2
2014-Nov-27 19:00N 53°36' E 009°30'0 0.0 110 / 191013.0 3.9 1.3 8.2
2014-Nov-27 18:00N 53°36' E 009°30'0 0.0 120 / 211012.7 4.2 1.9 8.2
2014-Nov-27 17:00N 53°36' E 009°30'0 0.0 120 / 191012.8 4.2 1.5 8.3
2014-Nov-27 16:00N 53°36' E 009°30'2 2.2 110 / 171013.0 4.4 1.5 8.1
2014-Nov-27 15:07N 53°37' E 009°33'218.1
2014-Nov-27 15:00N 53°36' E 009°36'1 2.4 100 / 161013.0 5.0 1.8 8.1
2014-Nov-27 14:31N 53°37' E 009°34'3 4.9
2014-Nov-27 14:00N 53°36' E 009°30'2 4.6 110 / 161013.4 4.4 1.9 8.0
2014-Nov-27 13:34N 53°38' E 009°32'2 3.5
2014-Nov-27 13:00N 53°36' E 009°30'2 5.3 110 / 161014.2 3.8 1.4 8.0
2014-Nov-27 12:33N 53°38' E 009°31'610.4
2014-Nov-27 12:00N 53°42' E 009°24'3 7.1 120 / 191014.3 3.8 1.1 8.3
2014-Nov-27 11:33N 53°45' E 009°24'1017.0
2014-Nov-27 11:00N 53°54' E 009°18'2 5.4 110 / 191014.3 3.2 1.1 8.6
2014-Nov-27 10:34N 53°52' E 009°17'712.0
2014-Nov-27 10:00N 53°54' E 009°06'2 4.4 110 / 191014.0 2.8 2.3 9.1
2014-Nov-27 09:33N 53°52' E 009°05'813.6
2014-Nov-27 09:00N 53°48' E 008°54'2 5.6 120 / 171013.8 2.6 1.9 8.9
2014-Nov-27 08:34N 53°50' E 008°54'4 7.5
2014-Nov-27 08:00N 53°48' E 008°48'4 9.0 110 / 171013.4 3.1 2.4 8.7
2014-Nov-27 07:33N 53°51' E 008°45'3 5.4
2014-Nov-27 07:00N 53°54' E 008°42'2 4.2 120 / 171013.1 3.5 2.8 8.8
2014-Nov-27 06:31N 53°52' E 008°43'2 3.8
2014-Nov-27 06:00N 53°54' E 008°42'2 3.8 120 / 191013.1 3.5 2.8 8.6
2014-Nov-27 05:28N 53°52' E 008°43'2 4.3
2014-Nov-27 05:00N 53°54' E 008°42'2 4.6 120 / 191013.4 3.7 2.9 8.6
2014-Nov-27 04:33N 53°52' E 008°43'2 3.6
2014-Nov-27 04:00N 53°54' E 008°42'2 4.5 120 / 171013.7 3.9 3.1 8.8
2014-Nov-27 03:33N 53°52' E 008°43'2 3.6
2014-Nov-27 03:00N 53°54' E 008°42'2 4.4 120 / 171014.2 4.0 3.2 8.9
2014-Nov-27 02:32N 53°52' E 008°43'2 3.7
2014-Nov-27 02:00N 53°54' E 008°42'2 4.4 120 / 171014.8 4.5 3.7 8.9
2014-Nov-27 01:32N 53°52' E 008°43'2 3.7
2014-Nov-27 01:00N 53°54' E 008°42'2 3.5 120 / 141015.5 4.6 3.9 9.0
2014-Nov-27 00:25N 53°52' E 008°43'2 4.6
2014-Nov-27 00:00N 53°54' E 008°42'2 4.2 120 / 161016.3 4.6 3.7 9.1
2014-Nov-26 23:31N 53°52' E 008°43'2 3.8
2014-Nov-26 23:00N 53°54' E 008°42'2 3.8 120 / 171016.8 4.6 3.5 9.1
2014-Nov-26 22:28N 53°52' E 008°43'2 4.3
2014-Nov-26 22:00N 53°54' E 008°42'2 4.6 130 / 171017.2 4.5 3.8 9.1
2014-Nov-26 21:33N 53°52' E 008°43'2 3.6
2014-Nov-26 21:00N 53°54' E 008°42'2 4.5 120 / 191017.3 4.5 3.8 9.1
2014-Nov-26 20:33N 53°52' E 008°43'2 3.6
2014-Nov-26 20:00N 53°54' E 008°42'2 4.4 120 / 171017.3 4.6 3.6 8.9
2014-Nov-26 19:32N 53°52' E 008°43'2 3.7
2014-Nov-26 19:00N 53°54' E 008°42'2 3.9 120 / 191017.4 4.6 3.8 9.1
2014-Nov-26 18:29N 53°52' E 008°43'2 4.1
2014-Nov-26 18:00N 53°54' E 008°42'2 4.8 120 / 211017.3 4.8 3.9 8.8
2014-Nov-26 17:33N 53°52' E 008°43'5 8.1
2014-Nov-26 17:00N 53°54' E 008°36'3 7.5 110 / 311017.9 4.9 3.7 9.1
2014-Nov-26 16:33N 53°57' E 008°37'814.4
2014-Nov-26 16:00N 54°00' E 008°24'1 2.6 110 / 271017.9 6.2 4.410.2
2014-Nov-26 15:33N 53°59' E 008°24'712.8
2014-Nov-26 15:00N 54°00' E 008°12'3 5.9 120 / 231018.3 5.8 4.212.1
2014-Nov-26 14:33N 53°58' E 008°09'4 7.9
2014-Nov-26 14:00N 53°54' E 008°06'2 5.3 110 / 191019.0 5.3 4.610.5
2014-Nov-26 13:33N 53°52' E 008°07'1018.1
2014-Nov-26 13:00N 53°42' E 008°12'3 6.4 120 / 191020.0 4.8 4.1 9.1
2014-Nov-26 12:33N 53°44' E 008°15'6 9.8
2014-Nov-26 12:00N 53°42' E 008°24'2 4.4 110 / 171020.7 4.6 3.9 8.2
2014-Nov-26 11:33N 53°40' E 008°23'610.6
2014-Nov-26 11:00N 53°36' E 008°30'1 3.0 120 / 101021.1 4.3 3.6 8.7
2014-Nov-26 10:33N 53°35' E 008°32'610.1
2014-Nov-26 10:00N 53°30' E 008°36'2 4.5 120 / 81020.8 3.7 3.1 8.7
2014-Nov-26 09:33N 53°32' E 008°35'2 3.5
2014-Nov-26 09:00N 53°30' E 008°36'2 3.4 120 / 101021.4 3.6 3.0 9.4
2014-Nov-26 08:33N 53°31' E 008°35'2 2.7
2014-Nov-26 08:00N 53°30' E 008°36'2 3.4 120 / 101021.4 3.2 2.6 9.4
2014-Nov-26 07:33N 53°31' E 008°35'2 2.7
2014-Nov-26 07:00N 53°30' E 008°36'2 3.3 120 / 101021.4 2.6 2.0 9.3
2014-Nov-26 06:32N 53°31' E 008°35'2 2.7
2014-Nov-26 06:00N 53°30' E 008°36'2 3.2 110 / 121021.7 2.2 1.7 9.3
2014-Nov-26 05:32N 53°31' E 008°35'2 2.8
2014-Nov-26 05:00N 53°30' E 008°36'2 3.2 110 / 81022.1 3.2 2.6 9.4
2014-Nov-26 04:31N 53°31' E 008°35'2 2.8
2014-Nov-26 04:00N 53°30' E 008°36'2 2.8 110 / 81022.7 2.9 2.3 9.2
2014-Nov-26 03:28N 53°31' E 008°35'2 3.2
2014-Nov-26 03:00N 53°30' E 008°36'2 3.1 110 / 81023.0 2.8 2.1 9.3
2014-Nov-26 02:31N 53°31' E 008°35'2 2.9
2014-Nov-26 02:00N 53°30' E 008°36'2 3.4 100 / 81023.2 2.6 1.9 9.4
2014-Nov-26 01:33N 53°31' E 008°35'2 2.7
2014-Nov-26 01:00N 53°30' E 008°36'2 3.4 110 / 101023.8 2.8 2.2 9.4
2014-Nov-26 00:33N 53°31' E 008°35'2 2.7
2014-Nov-26 00:00N 53°30' E 008°36'2 3.3 110 / 61024.5 3.1 2.6 9.5
2014-Nov-25 23:32N 53°31' E 008°35'2 2.7
2014-Nov-25 23:00N 53°30' E 008°36'2 3.3 110 / 81025.0 3.2 2.6 9.5
2014-Nov-25 22:32N 53°31' E 008°35'2 2.8
2014-Nov-25 22:00N 53°30' E 008°36'2 3.2 110 / 61025.2 3.5 2.9 9.6
2014-Nov-25 21:31N 53°31' E 008°35'2 2.8
2014-Nov-25 21:00N 53°30' E 008°36'2 3.2 130 / 81025.4 3.4 2.8 9.5
2014-Nov-25 20:31N 53°31' E 008°35'2 2.9
2014-Nov-25 20:00N 53°30' E 008°36'2 3.5 120 / 61025.5 3.8 3.2 9.4
2014-Nov-25 19:34N 53°31' E 008°35'2 2.6
2014-Nov-25 19:00N 53°30' E 008°36'2 3.4 130 / 61025.3 3.4 2.8 9.5
2014-Nov-25 18:33N 53°31' E 008°35'2 2.7
2014-Nov-25 18:00N 53°30' E 008°36'2 3.0 120 / 41025.3 3.2 2.6 9.5
2014-Nov-25 17:30N 53°31' E 008°35'2 3.0
2014-Nov-25 17:00N 53°30' E 008°36'2 3.3 120 / 41025.4 4.1 3.4 9.6
2014-Nov-25 16:32N 53°31' E 008°35'2 2.7
2014-Nov-25 16:00N 53°30' E 008°36'2 3.2 110 / 41026.2 4.6 4.0 9.6
2014-Nov-25 15:32N 53°31' E 008°35'2 2.8
2014-Nov-25 15:00N 53°30' E 008°36'2 3.2 100 / 41026.6 4.7 4.1 9.7
2014-Nov-25 14:31N 53°31' E 008°35'2 2.8
2014-Nov-25 14:00N 53°30' E 008°36'2 3.1 100 / 41027.0 5.6 5.0 9.6
2014-Nov-25 13:31N 53°31' E 008°35'2 2.9
2014-Nov-25 13:00N 53°30' E 008°36'2 3.5 1027.7 5.4 4.8 9.7
2014-Nov-25 12:33N 53°31' E 008°35'2 2.6
2014-Nov-25 12:00N 53°30' E 008°36'2 3.1 120 / 41027.9 5.3 4.8 9.7
2014-Nov-25 11:30N 53°31' E 008°35'2 2.9
2014-Nov-25 11:00N 53°30' E 008°36'2 3.3 110 / 41027.8 4.5 3.9 9.7
2014-Nov-25 10:33N 53°31' E 008°35'2 2.7
2014-Nov-25 10:00N 53°30' E 008°36'2 3.3 999 / 21027.6 4.3 3.7 9.7
2014-Nov-25 09:32N 53°31' E 008°35'2 2.8
2014-Nov-25 09:00N 53°30' E 008°36'2 2.9 1027.1 3.2 2.5 9.8
2014-Nov-25 08:29N 53°31' E 008°35'2 3.1
2014-Nov-25 08:00N 53°30' E 008°36'2 3.2 1027.0 3.5 2.9 9.8
2014-Nov-25 07:31N 53°31' E 008°35'2 2.8
2014-Nov-25 07:00N 53°30' E 008°36'2 3.2 1026.3 4.1 3.5 9.8
2014-Nov-25 06:31N 53°31' E 008°35'2 2.9
2014-Nov-25 06:00N 53°30' E 008°36'2 3.5 1026.4 4.1 3.4 9.8
2014-Nov-25 05:33N 53°31' E 008°35'2 2.7
2014-Nov-25 05:00N 53°30' E 008°36'2 3.4 190 / 41026.0 4.1 3.4 9.7
2014-Nov-25 04:33N 53°31' E 008°35'2 2.7
2014-Nov-25 04:00N 53°30' E 008°36'2 3.3 1025.6 4.1 3.5 9.7
2014-Nov-25 03:33N 53°31' E 008°35'2 2.7
2014-Nov-25 03:00N 53°30' E 008°36'2 3.3 1025.6 4.4 3.7 9.7
2014-Nov-25 02:32N 53°31' E 008°35'2 2.8
2014-Nov-25 02:00N 53°30' E 008°36'2 3.2 210 / 41025.8 4.8 4.1 9.7
2014-Nov-25 01:32N 53°31' E 008°35'2 2.8
2014-Nov-25 01:00N 53°30' E 008°36'2 3.2 250 / 41025.7 6.6 5.8 9.7
2014-Nov-25 00:31N 53°31' E 008°35'2 2.8
2014-Nov-25 00:00N 53°30' E 008°36'2 3.1 1025.3 6.1 5.4 9.6
2014-Nov-24 23:31N 53°31' E 008°35'2 2.9
2014-Nov-24 23:00N 53°30' E 008°36'2 3.5 270 / 61025.6 8.1 7.4 9.7
2014-Nov-24 22:33N 53°31' E 008°35'2 2.6
2014-Nov-24 22:00N 53°30' E 008°36'2 3.4 260 / 81025.0 7.9 7.0 9.7
2014-Nov-24 21:33N 53°31' E 008°35'2 2.7
2014-Nov-24 21:00N 53°30' E 008°36'2 3.4 260 / 101024.9 7.9 7.1 9.6
2014-Nov-24 20:33N 53°31' E 008°35'2 2.7
2014-Nov-24 20:00N 53°30' E 008°36'2 3.3 240 / 101024.2 7.9 7.0 9.6
2014-Nov-24 19:32N 53°31' E 008°35'2 2.8
2014-Nov-24 19:00N 53°30' E 008°36'2 3.2 220 / 81023.4 7.2 6.3 9.7
2014-Nov-24 18:32N 53°31' E 008°35'2 2.8
2014-Nov-24 18:00N 53°30' E 008°36'2 3.2 250 / 101022.9 8.5 7.5 9.6
2014-Nov-24 17:31N 53°31' E 008°35'2 2.8
2014-Nov-24 17:00N 53°30' E 008°36'2 3.1 240 / 101022.6 8.5 7.3 9.7
2014-Nov-24 16:31N 53°31' E 008°35'2 2.9
2014-Nov-24 16:00N 53°30' E 008°36'2 3.5 250 / 101022.6 9.0 7.1 9.8
2014-Nov-24 15:33N 53°31' E 008°35'2 2.7
2014-Nov-24 15:00N 53°30' E 008°36'2 3.4 260 / 101022.7 9.2 7.4 9.6
2014-Nov-24 14:33N 53°31' E 008°35'2 2.7
2014-Nov-24 14:00N 53°30' E 008°36'2 3.3 250 / 81022.4 10.0 6.9 9.5
2014-Nov-24 13:33N 53°31' E 008°35'2 2.7
2014-Nov-24 13:00N 53°30' E 008°36'2 3.3 250 / 121022.7 10.0 6.3 9.5
2014-Nov-24 12:32N 53°31' E 008°35'2 2.8
2014-Nov-24 12:00N 53°30' E 008°36'2 3.2 260 / 81022.6 10.0 6.5 9.6
2014-Nov-24 11:32N 53°31' E 008°35'2 2.8
2014-Nov-24 11:00N 53°30' E 008°36'2 3.2 260 / 81022.0 9.5 6.7 9.6
2014-Nov-24 10:31N 53°31' E 008°35'2 2.8
2014-Nov-24 10:00N 53°30' E 008°36'2 3.1 260 / 81020.6 8.8 7.6 9.6
2014-Nov-24 09:31N 53°31' E 008°35'2 2.9
2014-Nov-24 09:00N 53°30' E 008°36'2 3.4 260 / 81019.5 8.3 7.6 9.6
2014-Nov-24 08:33N 53°31' E 008°35'2 2.7
2014-Nov-24 08:00N 53°30' E 008°36'2 3.4 270 / 81018.7 8.1 7.4 9.6
2014-Nov-24 07:33N 53°31' E 008°35'2 2.7
2014-Nov-24 07:00N 53°30' E 008°36'2 3.3 270 / 81017.6 8.3 7.6 9.7
2014-Nov-24 06:33N 53°31' E 008°35'2 2.7
2014-Nov-24 06:00N 53°30' E 008°36'2 3.3 270 / 101016.7 8.6 7.9 9.6
2014-Nov-24 05:32N 53°31' E 008°35'2 2.8
2014-Nov-24 05:00N 53°30' E 008°36'2 3.2 290 / 121015.4 8.8 8.2 9.9
2014-Nov-24 04:32N 53°31' E 008°35'2 2.8
2014-Nov-24 04:00N 53°30' E 008°36'2 3.2 270 / 81014.2 9.3 8.7 9.9
2014-Nov-24 03:31N 53°31' E 008°35'2 2.8
2014-Nov-24 03:00N 53°30' E 008°36'2 3.1 300 / 141013.5 9.4 8.7 9.9
2014-Nov-24 02:31N 53°31' E 008°35'2 2.9
2014-Nov-24 02:00N 53°30' E 008°36'2 3.4 230 / 61013.1 10.3 9.6 9.8
2014-Nov-24 01:33N 53°31' E 008°35'2 2.7
2014-Nov-24 01:00N 53°30' E 008°36'2 3.4 200 / 41013.4 10.9 9.1 9.7
2014-Nov-24 00:33N 53°31' E 008°35'2 2.7
2014-Nov-24 00:00N 53°30' E 008°36'2 3.3 190 / 41013.3 10.8 8.3 9.8
2014-Nov-23 23:33N 53°31' E 008°35'2 2.7
2014-Nov-23 23:00N 53°30' E 008°36'2 3.3 160 / 61013.3 11.1 8.3 9.9
2014-Nov-23 22:32N 53°31' E 008°35'2 2.8
2014-Nov-23 22:00N 53°30' E 008°36'2 3.2 150 / 61013.5 10.6 8.2 9.8
2014-Nov-23 21:32N 53°31' E 008°35'2 2.8
2014-Nov-23 21:00N 53°30' E 008°36'2 3.2 150 / 81013.7 10.3 8.1 9.8
2014-Nov-23 20:31N 53°31' E 008°35'2 2.8
2014-Nov-23 20:00N 53°30' E 008°36'2 3.1 140 / 61014.1 10.3 7.9 9.8
2014-Nov-23 19:31N 53°31' E 008°35'2 2.9
2014-Nov-23 19:00N 53°30' E 008°36'2 3.4 140 / 81014.1 10.5 7.9 9.8
2014-Nov-23 18:33N 53°31' E 008°35'2 2.7
2014-Nov-23 18:00N 53°30' E 008°36'2 3.4 140 / 61014.5 10.8 8.4 9.8
2014-Nov-23 17:33N 53°31' E 008°35'2 2.7
2014-Nov-23 17:00N 53°30' E 008°36'2 3.3 140 / 81014.8 10.6 8.7 9.8
2014-Nov-23 16:33N 53°31' E 008°35'2 2.7
2014-Nov-23 16:00N 53°30' E 008°36'2 3.3 130 / 81015.6 10.9 9.2 9.7
2014-Nov-23 15:32N 53°31' E 008°35'2 2.8
2014-Nov-23 15:00N 53°30' E 008°36'2 3.2 140 / 61016.3 11.2 9.6 9.8
2014-Nov-23 14:32N 53°31' E 008°35'2 2.8
2014-Nov-23 14:00N 53°30' E 008°36'2 3.2 130 / 81017.5 11.2 9.9 9.8
2014-Nov-23 13:31N 53°31' E 008°35'2 2.8
2014-Nov-23 13:00N 53°30' E 008°36'2 3.1 130 / 81018.3 11.1 9.6 9.7
2014-Nov-23 12:31N 53°31' E 008°35'2 2.9
2014-Nov-23 12:00N 53°30' E 008°36'2 3.4 130 / 81019.1 10.1 9.1 9.8
2014-Nov-23 11:33N 53°31' E 008°35'2 2.7
2014-Nov-23 11:00N 53°30' E 008°36'2 3.4 130 / 81019.4 8.9 8.2 9.8
2014-Nov-23 10:33N 53°31' E 008°35'2 2.7
2014-Nov-23 10:00N 53°30' E 008°36'2 3.3 130 / 81019.4 8.2 7.5 9.8
2014-Nov-23 09:32N 53°31' E 008°35'2 2.7
2014-Nov-23 09:00N 53°30' E 008°36'2 3.3 130 / 61019.0 7.1 6.4 9.9
2014-Nov-23 08:32N 53°31' E 008°35'2 2.8
2014-Nov-23 08:00N 53°30' E 008°36'2 3.2 130 / 61019.1 6.6 5.9 9.9
2014-Nov-23 07:32N 53°31' E 008°35'2 2.8
2014-Nov-23 07:00N 53°30' E 008°36'2 3.2 130 / 61019.3 6.4 5.8 9.8
2014-Nov-23 06:31N 53°31' E 008°35'2 2.8
2014-Nov-23 06:00N 53°30' E 008°36'2 3.1 120 / 61018.8 6.2 5.5 9.8
2014-Nov-23 05:31N 53°31' E 008°35'2 2.9
2014-Nov-23 05:00N 53°30' E 008°36'2 3.4 130 / 61019.1 6.3 5.7 9.9
2014-Nov-23 04:33N 53°31' E 008°35'2 2.7
2014-Nov-23 04:00N 53°30' E 008°36'2 3.4 130 / 61019.1 6.0 5.4 9.9
2014-Nov-23 03:33N 53°31' E 008°35'2 2.7
2014-Nov-23 03:00N 53°30' E 008°36'2 3.3 130 / 61019.2 6.1 5.4 9.7
2014-Nov-23 02:32N 53°31' E 008°35'2 2.7
2014-Nov-23 02:00N 53°30' E 008°36'2 3.3 130 / 61019.4 5.9 5.2 9.8
2014-Nov-23 01:32N 53°31' E 008°35'2 2.8
2014-Nov-23 01:00N 53°30' E 008°36'2 3.2 130 / 61019.2 5.7 5.0 9.7
2014-Nov-23 00:32N 53°31' E 008°35'0 0.0
2014-Nov-22 23:31N 53°31' E 008°35'0 0.0
2014-Nov-22 22:31N 53°31' E 008°35'0 0.0
2014-Nov-22 21:33N 53°31' E 008°35'2 2.7
2014-Nov-22 21:00N 53°30' E 008°36'2 3.4 130 / 101019.1 6.2 5.5 9.8
2014-Nov-22 20:33N 53°31' E 008°35'2 2.7
2014-Nov-22 20:00N 53°30' E 008°36'2 3.3 120 / 101019.0 6.1 5.3 9.9
2014-Nov-22 19:33N 53°31' E 008°35'2 2.7
2014-Nov-22 19:00N 53°30' E 008°36'2 3.3 120 / 81019.1 6.0 5.3 9.8
2014-Nov-22 18:32N 53°31' E 008°35'2 2.8
2014-Nov-22 18:00N 53°30' E 008°36'2 2.9 120 / 81019.3 6.3 5.4 9.8
2014-Nov-22 17:29N 53°31' E 008°35'2 3.1
2014-Nov-22 17:00N 53°30' E 008°36'2 3.2 120 / 81019.8 6.3 5.5 9.8
2014-Nov-22 16:31N 53°31' E 008°35'2 2.8
2014-Nov-22 16:00N 53°30' E 008°36'2 3.1 120 / 81019.6 6.3 5.6 9.9
2014-Nov-22 15:31N 53°31' E 008°35'2 2.9
2014-Nov-22 15:00N 53°30' E 008°36'2 3.4 130 / 81019.6 6.7 5.8 9.8
2014-Nov-22 14:33N 53°31' E 008°35'2 2.7
2014-Nov-22 14:00N 53°30' E 008°36'2 3.4 130 / 81019.6 6.4 5.7 9.8
2014-Nov-22 13:33N 53°31' E 008°35'2 2.7
2014-Nov-22 13:00N 53°30' E 008°36'2 3.3 130 / 101020.3 6.0 5.3 9.8
2014-Nov-22 12:32N 53°31' E 008°35'2 2.7
2014-Nov-22 12:00N 53°30' E 008°36'2 3.3 110 / 61021.0 5.6 4.9 9.8
2014-Nov-22 11:32N 53°31' E 008°35'2 2.8
2014-Nov-22 11:00N 53°30' E 008°36'2 3.2 130 / 61021.4 5.7 4.2 9.8
2014-Nov-22 10:32N 53°31' E 008°35'2 2.8
2014-Nov-22 10:00N 53°30' E 008°36'2 2.9 120 / 121021.4 5.2 3.9 9.8
2014-Nov-22 09:28N 53°31' E 008°35'2 3.2
2014-Nov-22 09:00N 53°30' E 008°36'2 3.1 120 / 101021.1 4.7 3.9 9.9
2014-Nov-22 08:31N 53°31' E 008°35'2 2.9
2014-Nov-22 08:00N 53°30' E 008°36'2 3.4 120 / 121021.3 4.5 3.6 9.9
2014-Nov-22 07:33N 53°31' E 008°35'2 2.7
2014-Nov-22 07:00N 53°30' E 008°36'2 3.4 120 / 81021.1 4.2 3.6 9.9
2014-Nov-22 06:33N 53°31' E 008°35'0 0.0
2014-Nov-22 05:32N 53°31' E 008°35'0 0.0
2014-Nov-22 04:32N 53°31' E 008°35'2 2.8
2014-Nov-22 04:00N 53°30' E 008°36'2 3.2 100 / 61022.1 2.3 1.7 9.8
2014-Nov-22 03:32N 53°31' E 008°35'2 2.8
2014-Nov-22 03:00N 53°30' E 008°36'2 3.2 090 / 61022.4 1.9 1.3 9.9
2014-Nov-22 02:31N 53°31' E 008°35'2 2.8
2014-Nov-22 02:00N 53°30' E 008°36'2 3.1 100 / 61022.8 1.7 1.2 9.9
2014-Nov-22 01:31N 53°31' E 008°35'2 2.9
2014-Nov-22 01:00N 53°30' E 008°36'2 3.4 100 / 61022.9 1.4 0.8 9.9
2014-Nov-22 00:33N 53°31' E 008°35'2 2.7
2014-Nov-22 00:00N 53°30' E 008°36'2 3.4 090 / 61023.4 1.2 0.6 9.9
2014-Nov-21 23:33N 53°31' E 008°35'2 2.7
2014-Nov-21 23:00N 53°30' E 008°36'2 3.3 090 / 61023.8 0.7 0.1 9.9
2014-Nov-21 22:32N 53°31' E 008°35'2 2.7
2014-Nov-21 22:00N 53°30' E 008°36'2 3.3 090 / 41023.9 0.4-0.110.0
2014-Nov-21 21:32N 53°31' E 008°35'2 2.8
2014-Nov-21 21:00N 53°30' E 008°36'2 3.2 090 / 61023.8 0.4-0.210.0
2014-Nov-21 20:32N 53°31' E 008°35'2 2.8
2014-Nov-21 20:00N 53°30' E 008°36'2 3.2 090 / 61024.1 0.4-0.110.1
2014-Nov-21 19:31N 53°31' E 008°35'2 2.8
2014-Nov-21 19:00N 53°30' E 008°36'2 3.1 090 / 41024.1 0.6-0.010.0
2014-Nov-21 18:31N 53°31' E 008°35'0 0.0
2014-Nov-21 17:30N 53°31' E 008°35'2 2.9
2014-Nov-21 17:00N 53°30' E 008°36'2 3.4 090 / 41024.2 0.9 0.210.1
2014-Nov-21 16:33N 53°31' E 008°35'2 2.7
2014-Nov-21 16:00N 53°30' E 008°36'2 3.3 090 / 61024.7 1.5 1.010.1
2014-Nov-21 15:32N 53°31' E 008°35'2 2.7
2014-Nov-21 15:00N 53°30' E 008°36'2 3.3 090 / 41025.3 2.5 1.910.1
2014-Nov-21 14:32N 53°31' E 008°35'2 2.8
2014-Nov-21 14:00N 53°30' E 008°36'2 3.2 070 / 61026.1 2.9 2.310.1
2014-Nov-21 13:32N 53°31' E 008°35'2 2.8
2014-Nov-21 13:00N 53°30' E 008°36'2 3.2 070 / 41026.8 2.8 2.210.1
2014-Nov-21 12:31N 53°31' E 008°35'2 2.9
2014-Nov-21 12:00N 53°30' E 008°36'2 3.1 100 / 41026.7 2.7 2.010.1
2014-Nov-21 11:31N 53°31' E 008°35'2 2.9
2014-Nov-21 11:00N 53°30' E 008°36'2 3.4 1027.1 1.6 1.010.0
2014-Nov-21 10:33N 53°31' E 008°35'2 2.7
2014-Nov-21 10:00N 53°30' E 008°36'2 3.4 110 / 41027.1 -0.1-0.810.1
2014-Nov-21 09:33N 53°31' E 008°35'2 2.7
2014-Nov-21 09:00N 53°30' E 008°36'2 3.3 120 / 41026.5 -0.0-0.710.2
2014-Nov-21 08:32N 53°31' E 008°35'2 2.7
2014-Nov-21 08:00N 53°30' E 008°36'2 2.9 1025.6 -0.7-1.410.1
2014-Nov-21 07:29N 53°31' E 008°35'2 3.1
2014-Nov-21 07:00N 53°30' E 008°36'2 3.2 110 / 41025.8 -0.9-1.510.2
2014-Nov-21 06:31N 53°31' E 008°35'2 2.8
2014-Nov-21 06:00N 53°30' E 008°36'2 3.2 1026.1 -0.5-1.110.3
2014-Nov-21 05:31N 53°31' E 008°35'2 2.9
2014-Nov-21 05:00N 53°30' E 008°36'2 3.1 1026.3 -0.8-1.410.3
2014-Nov-21 04:31N 53°31' E 008°35'2 2.9
2014-Nov-21 04:00N 53°30' E 008°36'2 3.4 1026.5 -0.4-1.110.2
2014-Nov-21 03:33N 53°31' E 008°35'2 2.7
2014-Nov-21 03:00N 53°30' E 008°36'2 3.4 1026.8 0.2-0.510.2
2014-Nov-21 02:33N 53°31' E 008°35'2 2.7
2014-Nov-21 02:00N 53°30' E 008°36'2 3.3 1027.3 0.2-0.510.2
2014-Nov-21 01:32N 53°31' E 008°35'2 2.7
2014-Nov-21 01:00N 53°30' E 008°36'2 3.3 1027.3 0.6-0.110.2
2014-Nov-21 00:32N 53°31' E 008°35'2 2.8
2014-Nov-21 00:00N 53°30' E 008°36'2 3.2 1027.8 1.1 0.410.2
2014-Nov-20 23:31N 53°31' E 008°35'2 2.8
2014-Nov-20 23:00N 53°30' E 008°36'2 3.2 1028.2 2.0 1.310.3
2014-Nov-20 22:31N 53°31' E 008°35'2 2.9
2014-Nov-20 22:00N 53°30' E 008°36'2 3.1 1028.0 3.2 2.510.4
2014-Nov-20 21:31N 53°31' E 008°35'2 2.9
2014-Nov-20 21:00N 53°30' E 008°36'2 3.4 999 / 21027.8 4.4 3.710.4
2014-Nov-20 20:33N 53°31' E 008°35'2 2.7
2014-Nov-20 20:00N 53°30' E 008°36'2 3.4 1027.8 5.3 4.610.5
2014-Nov-20 19:33N 53°31' E 008°35'2 2.7
2014-Nov-20 19:00N 53°30' E 008°36'2 3.3 1027.7 5.5 4.810.6
2014-Nov-20 18:32N 53°31' E 008°35'2 2.7
2014-Nov-20 18:00N 53°30' E 008°36'2 3.3 1028.1 6.2 5.410.6
2014-Nov-20 17:32N 53°31' E 008°35'2 2.8
2014-Nov-20 17:00N 53°30' E 008°36'2 3.2 1027.7 6.4 5.710.5
2014-Nov-20 16:31N 53°31' E 008°35'2 2.8
2014-Nov-20 16:00N 53°30' E 008°36'2 3.2 1027.8 7.0 6.210.5
2014-Nov-20 15:31N 53°31' E 008°35'0 0.0
2014-Nov-20 14:31N 53°31' E 008°35'2 2.9
2014-Nov-20 14:00N 53°30' E 008°36'2 3.4 1028.8 8.5 6.210.5
2014-Nov-20 13:33N 53°31' E 008°35'2 2.7
2014-Nov-20 13:00N 53°30' E 008°36'2 3.4 1028.8 8.3 5.310.5
2014-Nov-20 12:33N 53°31' E 008°35'2 2.7
2014-Nov-20 12:00N 53°30' E 008°36'2 3.0 1029.1 8.3 6.010.5
2014-Nov-20 11:29N 53°31' E 008°35'2 3.0
2014-Nov-20 11:00N 53°30' E 008°36'2 2.9 1029.0 8.3 7.510.4
2014-Nov-20 10:29N 53°31' E 008°35'2 3.1
2014-Nov-20 10:00N 53°30' E 008°36'2 3.2 120 / 41029.2 7.7 7.010.4
2014-Nov-20 09:31N 53°31' E 008°35'2 2.8
2014-Nov-20 09:00N 53°30' E 008°36'2 3.2 1029.1 7.6 6.810.4
2014-Nov-20 08:31N 53°31' E 008°35'2 2.9
2014-Nov-20 08:00N 53°30' E 008°36'2 3.1 1028.6 7.1 6.410.4
2014-Nov-20 07:31N 53°31' E 008°35'2 2.9
2014-Nov-20 07:00N 53°30' E 008°36'2 3.4 1027.8 7.0 6.310.5
2014-Nov-20 06:33N 53°31' E 008°35'2 2.7
2014-Nov-20 06:00N 53°30' E 008°36'2 3.4 1027.6 7.4 6.710.4
2014-Nov-20 05:33N 53°31' E 008°35'2 2.7
2014-Nov-20 05:00N 53°30' E 008°36'2 3.3 1027.5 7.1 6.510.4
2014-Nov-20 04:32N 53°31' E 008°35'2 2.7
2014-Nov-20 04:00N 53°30' E 008°36'2 3.2 1027.3 6.9 6.210.4
2014-Nov-20 03:32N 53°31' E 008°35'2 2.8
2014-Nov-20 03:00N 53°30' E 008°36'2 3.2 1027.5 7.1 6.410.5
2014-Nov-20 02:31N 53°31' E 008°35'2 2.8
2014-Nov-20 02:00N 53°30' E 008°36'2 2.9 1027.3 7.0 6.310.4
2014-Nov-20 01:28N 53°31' E 008°35'2 3.2
2014-Nov-20 01:00N 53°30' E 008°36'2 3.5 1026.8 7.1 6.410.4
2014-Nov-20 00:34N 53°31' E 008°35'2 2.6
2014-Nov-20 00:00N 53°30' E 008°36'2 3.4 1026.8 7.2 6.510.4
2014-Nov-19 23:33N 53°31' E 008°35'2 2.7
2014-Nov-19 23:00N 53°30' E 008°36'2 3.4 1026.5 7.5 6.710.4
2014-Nov-19 22:33N 53°31' E 008°35'2 2.7
2014-Nov-19 22:00N 53°30' E 008°36'2 3.3 1026.1 7.5 6.810.4
2014-Nov-19 21:32N 53°31' E 008°35'2 2.7
2014-Nov-19 21:00N 53°30' E 008°36'2 3.3 1025.8 7.6 6.810.5
2014-Nov-19 20:32N 53°31' E 008°35'2 2.8
2014-Nov-19 20:00N 53°30' E 008°36'2 3.2 1025.4 7.8 7.010.5
2014-Nov-19 19:31N 53°31' E 008°35'2 2.8
2014-Nov-19 19:00N 53°30' E 008°36'2 3.2 1024.7 7.8 7.110.5
2014-Nov-19 18:31N 53°31' E 008°35'2 2.9
2014-Nov-19 18:00N 53°30' E 008°36'2 3.5 1024.4 8.1 7.210.5
2014-Nov-19 17:34N 53°31' E 008°35'2 2.6
2014-Nov-19 17:00N 53°30' E 008°36'2 3.4 1023.9 8.2 7.210.4
2014-Nov-19 16:33N 53°31' E 008°35'2 2.7
2014-Nov-19 16:00N 53°30' E 008°36'2 3.4 1023.2 8.2 7.310.5
2014-Nov-19 15:33N 53°31' E 008°35'2 2.7
2014-Nov-19 15:00N 53°30' E 008°36'2 3.3 1023.0 8.4 7.610.6
2014-Nov-19 14:32N 53°31' E 008°35'2 2.8
2014-Nov-19 14:00N 53°30' E 008°36'2 3.2 070 / 41022.3 8.4 7.610.5
2014-Nov-19 13:32N 53°31' E 008°35'2 2.8
2014-Nov-19 13:00N 53°30' E 008°36'2 3.2 060 / 41021.7 8.5 7.710.5
2014-Nov-19 12:31N 53°31' E 008°35'2 2.8
2014-Nov-19 12:00N 53°30' E 008°36'2 3.2 060 / 41021.3 8.4 7.710.6
2014-Nov-19 11:31N 53°31' E 008°35'2 2.9
2014-Nov-19 11:00N 53°30' E 008°36'2 3.5 050 / 41020.8 8.1 7.410.5
2014-Nov-19 10:34N 53°31' E 008°35'2 2.6
2014-Nov-19 10:00N 53°30' E 008°36'2 2.8 050 / 41020.9 8.0 7.310.8
2014-Nov-19 09:27N 53°31' E 008°35'2 3.3
2014-Nov-19 09:00N 53°30' E 008°36'2 3.4 1020.0 7.8 7.110.7
2014-Nov-19 08:33N 53°31' E 008°35'2 2.7
2014-Nov-19 08:00N 53°30' E 008°36'2 3.3 030 / 41019.2 7.9 7.210.7
2014-Nov-19 07:32N 53°31' E 008°35'2 2.8
2014-Nov-19 07:00N 53°30' E 008°36'2 3.2 1018.3 8.0 7.210.7
2014-Nov-19 06:32N 53°31' E 008°35'2 2.8
2014-Nov-19 06:00N 53°30' E 008°36'2 3.2 030 / 41017.5 7.9 7.210.7
2014-Nov-19 05:31N 53°31' E 008°35'2 2.8
2014-Nov-19 05:00N 53°30' E 008°36'2 3.2 040 / 41017.0 7.9 7.110.6
2014-Nov-19 04:31N 53°31' E 008°35'2 2.9
2014-Nov-19 04:00N 53°30' E 008°36'2 3.5 060 / 41016.4 7.8 6.810.6
2014-Nov-19 03:34N 53°31' E 008°35'2 2.6
2014-Nov-19 03:00N 53°30' E 008°36'2 3.4 070 / 61016.1 7.6 6.810.6
2014-Nov-19 02:33N 53°31' E 008°35'2 2.7
2014-Nov-19 02:00N 53°30' E 008°36'2 3.3 070 / 61015.9 7.3 6.510.7
2014-Nov-19 01:33N 53°31' E 008°35'2 2.7
2014-Nov-19 01:00N 53°30' E 008°36'2 3.3 070 / 41015.6 7.0 6.310.7
2014-Nov-19 00:32N 53°31' E 008°35'2 2.8
2014-Nov-19 00:00N 53°30' E 008°36'2 3.2 070 / 41015.2 6.9 6.210.7
2014-Nov-18 23:32N 53°31' E 008°35'2 2.8
2014-Nov-18 23:00N 53°30' E 008°36'2 3.2 070 / 61015.1 7.2 6.510.7
2014-Nov-18 22:31N 53°31' E 008°35'2 2.8
2014-Nov-18 22:00N 53°30' E 008°36'2 3.1 080 / 61014.7 7.4 6.610.7
2014-Nov-18 21:31N 53°31' E 008°35'2 2.9
2014-Nov-18 21:00N 53°30' E 008°36'2 3.5 090 / 81014.3 7.7 6.710.7
2014-Nov-18 20:33N 53°31' E 008°35'2 2.7
2014-Nov-18 20:00N 53°30' E 008°36'2 3.4 080 / 61013.8 7.9 6.910.6
2014-Nov-18 19:33N 53°31' E 008°35'2 2.7
2014-Nov-18 19:00N 53°30' E 008°36'2 3.3 090 / 81013.3 8.2 7.310.5
2014-Nov-18 18:33N 53°31' E 008°35'2 2.7
2014-Nov-18 18:00N 53°30' E 008°36'2 3.3 080 / 81013.0 8.5 7.710.4
2014-Nov-18 17:32N 53°31' E 008°35'2 2.8
2014-Nov-18 17:00N 53°30' E 008°36'2 4.7 070 / 61012.8 8.8 8.010.1
2014-Nov-18 16:33N 53°32' E 008°35'5 8.8
2014-Nov-18 16:00N 53°36' E 008°30'1 1.2 050 / 101013.0 9.0 8.310.2
2014-Nov-18 15:33N 53°36' E 008°30'915.7
2014-Nov-18 15:00N 53°42' E 008°18'1 1.3 060 / 161013.0 9.2 8.5 9.7
2014-Nov-18 14:33N 53°43' E 008°18'915.9
2014-Nov-18 14:00N 53°48' E 008°06'1 2.4 060 / 191013.0 9.4 8.610.3
2014-Nov-18 13:33N 53°49' E 008°07'711.7
2014-Nov-18 13:00N 53°54' E 008°00'6 7.0 070 / 211013.6 9.6 8.811.7
2014-Nov-18 12:10N 53°60' E 008°03'739.7
2014-Nov-18 12:00N 54°06' E 008°06'1 2.2 070 / 171014.5 9.6 8.913.0
2014-Nov-18 11:34N 54°06' E 008°07'915.6
2014-Nov-18 11:00N 54°12' E 008°18'3 7.7 060 / 171015.0 9.3 8.512.2
2014-Nov-18 10:33N 54°15' E 008°17'1017.4
2014-Nov-18 10:00N 54°24' E 008°24'4 7.8 060 / 161014.6 9.2 8.510.2
2014-Nov-18 09:30N 54°22' E 008°30'2 4.3
2014-Nov-18 09:00N 54°24' E 008°30'2 3.4 050 / 141014.4 8.9 8.3 9.8
2014-Nov-18 08:28N 54°23' E 008°32'2 3.7
2014-Nov-18 08:00N 54°24' E 008°30'0 0.0 060 / 141014.2 8.9 8.2 9.9
2014-Nov-18 07:00N 54°24' E 008°30'2 2.6 070 / 101013.5 8.7 8.0 9.8
2014-Nov-18 06:18N 54°23' E 008°32'2 5.9
2014-Nov-18 06:00N 54°24' E 008°30'2 4.0 060 / 121014.1 8.7 7.9 9.9
2014-Nov-18 05:33N 54°23' E 008°32'2 3.3
2014-Nov-18 05:00N 54°24' E 008°30'2 3.2 070 / 101014.2 8.8 8.010.0
2014-Nov-18 04:26N 54°23' E 008°32'2 4.0
2014-Nov-18 04:00N 54°24' E 008°30'2 3.4 070 / 141013.9 8.2 7.5 9.9
2014-Nov-18 03:29N 54°23' E 008°32'2 3.6
2014-Nov-18 03:00N 54°24' E 008°30'2 2.3 090 / 121013.9 8.0 7.3 9.8
2014-Nov-18 02:13N 54°23' E 008°32'2 7.7
2014-Nov-18 02:00N 54°24' E 008°30'0 0.0 080 / 141013.8 8.2 7.5 9.8
2014-Nov-18 01:00N 54°24' E 008°30'0 0.0 080 / 161013.4 8.2 7.5 9.9
2014-Nov-18 00:00N 54°24' E 008°30'0 0.0 080 / 161013.1 7.8 7.1 9.9
2014-Nov-17 23:00N 54°24' E 008°30'2 2.7 090 / 161013.1 7.5 6.9 9.9
2014-Nov-17 22:21N 54°23' E 008°32'0 0.0
2014-Nov-17 21:26N 54°23' E 008°32'0 0.0
2014-Nov-17 20:32N 54°23' E 008°32'2 3.2
2014-Nov-17 20:00N 54°24' E 008°30'   090 / 161011.5 7.5 6.710.0
Track history (hours):
 
Tides and Currents Weather Stations Pressure Air Temp Water Temp Dewpoint Dewpoint Depression Visibility Wind Speed Wind Dir Waves Ship Positions

Oceanographic research ship Atair (Germany)

Detailed information on ship capabilities available from University of Delaware's Ocean Information Center.

Last reported at 2014-Nov-27 20:00 UTC. Time now 2014-Nov-27 20:40 UTC.
Position N 53°36' E 009°30'.

Length 51.4 m; beam 11.4 m; draft 3.5 m.

MMSI: 211223296.

Wind from 110 at 19 knots

Barometer 1013.5 mb
Air temperature 3.8 ° C
Dewpoint 1.1 ° C
Water temperature 8.2 ° C

Date/timePositionNaut miles runAvg speedWind from/ knotsBaromVisibWave heightAir tempDewpointWater temp
2014-Nov-27 20:00N 53°36' E 009°30'0 0.0 110 / 191013.5 3.8 1.1 8.2
2014-Nov-27 19:00N 53°36' E 009°30'0 0.0 110 / 191013.0 3.9 1.3 8.2
2014-Nov-27 18:00N 53°36' E 009°30'0 0.0 120 / 211012.7 4.2 1.9 8.2
2014-Nov-27 17:00N 53°36' E 009°30'0 0.0 120 / 191012.8 4.2 1.5 8.3
2014-Nov-27 16:00N 53°36' E 009°30'2 2.2 110 / 171013.0 4.4 1.5 8.1
2014-Nov-27 15:07N 53°37' E 009°33'218.1
2014-Nov-27 15:00N 53°36' E 009°36'1 2.4 100 / 161013.0 5.0 1.8 8.1
2014-Nov-27 14:31N 53°37' E 009°34'3 4.9
2014-Nov-27 14:00N 53°36' E 009°30'2 4.6 110 / 161013.4 4.4 1.9 8.0
2014-Nov-27 13:34N 53°38' E 009°32'2 3.5
2014-Nov-27 13:00N 53°36' E 009°30'2 5.3 110 / 161014.2 3.8 1.4 8.0
2014-Nov-27 12:33N 53°38' E 009°31'610.4
2014-Nov-27 12:00N 53°42' E 009°24'3 7.1 120 / 191014.3 3.8 1.1 8.3
2014-Nov-27 11:33N 53°45' E 009°24'1017.0
2014-Nov-27 11:00N 53°54' E 009°18'2 5.4 110 / 191014.3 3.2 1.1 8.6
2014-Nov-27 10:34N 53°52' E 009°17'712.0
2014-Nov-27 10:00N 53°54' E 009°06'2 4.4 110 / 191014.0 2.8 2.3 9.1
2014-Nov-27 09:33N 53°52' E 009°05'813.6
2014-Nov-27 09:00N 53°48' E 008°54'2 5.6 120 / 171013.8 2.6 1.9 8.9
2014-Nov-27 08:34N 53°50' E 008°54'4 7.5
2014-Nov-27 08:00N 53°48' E 008°48'4 9.0 110 / 171013.4 3.1 2.4 8.7
2014-Nov-27 07:33N 53°51' E 008°45'3 5.4
2014-Nov-27 07:00N 53°54' E 008°42'2 4.2 120 / 171013.1 3.5 2.8 8.8
2014-Nov-27 06:31N 53°52' E 008°43'2 3.8
2014-Nov-27 06:00N 53°54' E 008°42'2 3.8 120 / 191013.1 3.5 2.8 8.6
2014-Nov-27 05:28N 53°52' E 008°43'2 4.3
2014-Nov-27 05:00N 53°54' E 008°42'2 4.6 120 / 191013.4 3.7 2.9 8.6
2014-Nov-27 04:33N 53°52' E 008°43'2 3.6
2014-Nov-27 04:00N 53°54' E 008°42'2 4.5 120 / 171013.7 3.9 3.1 8.8
2014-Nov-27 03:33N 53°52' E 008°43'2 3.6
2014-Nov-27 03:00N 53°54' E 008°42'2 4.4 120 / 171014.2 4.0 3.2 8.9
2014-Nov-27 02:32N 53°52' E 008°43'2 3.7
2014-Nov-27 02:00N 53°54' E 008°42'2 4.4 120 / 171014.8 4.5 3.7 8.9
2014-Nov-27 01:32N 53°52' E 008°43'2 3.7
2014-Nov-27 01:00N 53°54' E 008°42'2 3.5 120 / 141015.5 4.6 3.9 9.0
2014-Nov-27 00:25N 53°52' E 008°43'2 4.6
2014-Nov-27 00:00N 53°54' E 008°42'2 4.2 120 / 161016.3 4.6 3.7 9.1
2014-Nov-26 23:31N 53°52' E 008°43'2 3.8
2014-Nov-26 23:00N 53°54' E 008°42'2 3.8 120 / 171016.8 4.6 3.5 9.1
2014-Nov-26 22:28N 53°52' E 008°43'2 4.3
2014-Nov-26 22:00N 53°54' E 008°42'2 4.6 130 / 171017.2 4.5 3.8 9.1
2014-Nov-26 21:33N 53°52' E 008°43'2 3.6
2014-Nov-26 21:00N 53°54' E 008°42'2 4.5 120 / 191017.3 4.5 3.8 9.1
2014-Nov-26 20:33N 53°52' E 008°43'2 3.6
2014-Nov-26 20:00N 53°54' E 008°42'2 4.4 120 / 171017.3 4.6 3.6 8.9
2014-Nov-26 19:32N 53°52' E 008°43'2 3.7
2014-Nov-26 19:00N 53°54' E 008°42'2 3.9 120 / 191017.4 4.6 3.8 9.1
2014-Nov-26 18:29N 53°52' E 008°43'2 4.1
2014-Nov-26 18:00N 53°54' E 008°42'2 4.8 120 / 211017.3 4.8 3.9 8.8
2014-Nov-26 17:33N 53°52' E 008°43'5 8.1
2014-Nov-26 17:00N 53°54' E 008°36'3 7.5 110 / 311017.9 4.9 3.7 9.1
2014-Nov-26 16:33N 53°57' E 008°37'814.4
2014-Nov-26 16:00N 54°00' E 008°24'1 2.6 110 / 271017.9 6.2 4.410.2
2014-Nov-26 15:33N 53°59' E 008°24'712.8
2014-Nov-26 15:00N 54°00' E 008°12'3 5.9 120 / 231018.3 5.8 4.212.1
2014-Nov-26 14:33N 53°58' E 008°09'4 7.9
2014-Nov-26 14:00N 53°54' E 008°06'2 5.3 110 / 191019.0 5.3 4.610.5
2014-Nov-26 13:33N 53°52' E 008°07'1018.1
2014-Nov-26 13:00N 53°42' E 008°12'3 6.4 120 / 191020.0 4.8 4.1 9.1
2014-Nov-26 12:33N 53°44' E 008°15'6 9.8
2014-Nov-26 12:00N 53°42' E 008°24'2 4.4 110 / 171020.7 4.6 3.9 8.2
2014-Nov-26 11:33N 53°40' E 008°23'610.6
2014-Nov-26 11:00N 53°36' E 008°30'1 3.0 120 / 101021.1 4.3 3.6 8.7
2014-Nov-26 10:33N 53°35' E 008°32'610.1
2014-Nov-26 10:00N 53°30' E 008°36'2 4.5 120 / 81020.8 3.7 3.1 8.7
2014-Nov-26 09:33N 53°32' E 008°35'2 3.5
2014-Nov-26 09:00N 53°30' E 008°36'2 3.4 120 / 101021.4 3.6 3.0 9.4
2014-Nov-26 08:33N 53°31' E 008°35'2 2.7
2014-Nov-26 08:00N 53°30' E 008°36'2 3.4 120 / 101021.4 3.2 2.6 9.4
2014-Nov-26 07:33N 53°31' E 008°35'2 2.7
2014-Nov-26 07:00N 53°30' E 008°36'2 3.3 120 / 101021.4 2.6 2.0 9.3
2014-Nov-26 06:32N 53°31' E 008°35'2 2.7
2014-Nov-26 06:00N 53°30' E 008°36'2 3.2 110 / 121021.7 2.2 1.7 9.3
2014-Nov-26 05:32N 53°31' E 008°35'2 2.8
2014-Nov-26 05:00N 53°30' E 008°36'2 3.2 110 / 81022.1 3.2 2.6 9.4
2014-Nov-26 04:31N 53°31' E 008°35'2 2.8
2014-Nov-26 04:00N 53°30' E 008°36'2 2.8 110 / 81022.7 2.9 2.3 9.2
2014-Nov-26 03:28N 53°31' E 008°35'2 3.2
2014-Nov-26 03:00N 53°30' E 008°36'2 3.1 110 / 81023.0 2.8 2.1 9.3
2014-Nov-26 02:31N 53°31' E 008°35'2 2.9
2014-Nov-26 02:00N 53°30' E 008°36'2 3.4 100 / 81023.2 2.6 1.9 9.4
2014-Nov-26 01:33N 53°31' E 008°35'2 2.7
2014-Nov-26 01:00N 53°30' E 008°36'2 3.4 110 / 101023.8 2.8 2.2 9.4
2014-Nov-26 00:33N 53°31' E 008°35'2 2.7
2014-Nov-26 00:00N 53°30' E 008°36'2 3.3 110 / 61024.5 3.1 2.6 9.5
2014-Nov-25 23:32N 53°31' E 008°35'2 2.7
2014-Nov-25 23:00N 53°30' E 008°36'2 3.3 110 / 81025.0 3.2 2.6 9.5
2014-Nov-25 22:32N 53°31' E 008°35'2 2.8
2014-Nov-25 22:00N 53°30' E 008°36'2 3.2 110 / 61025.2 3.5 2.9 9.6
2014-Nov-25 21:31N 53°31' E 008°35'2 2.8
2014-Nov-25 21:00N 53°30' E 008°36'2 3.2 130 / 81025.4 3.4 2.8 9.5
2014-Nov-25 20:31N 53°31' E 008°35'2 2.9
2014-Nov-25 20:00N 53°30' E 008°36'2 3.5 120 / 61025.5 3.8 3.2 9.4
2014-Nov-25 19:34N 53°31' E 008°35'2 2.6
2014-Nov-25 19:00N 53°30' E 008°36'2 3.4 130 / 61025.3 3.4 2.8 9.5
2014-Nov-25 18:33N 53°31' E 008°35'2 2.7
2014-Nov-25 18:00N 53°30' E 008°36'2 3.0 120 / 41025.3 3.2 2.6 9.5
2014-Nov-25 17:30N 53°31' E 008°35'2 3.0
2014-Nov-25 17:00N 53°30' E 008°36'2 3.3 120 / 41025.4 4.1 3.4 9.6
2014-Nov-25 16:32N 53°31' E 008°35'2 2.7
2014-Nov-25 16:00N 53°30' E 008°36'2 3.2 110 / 41026.2 4.6 4.0 9.6
2014-Nov-25 15:32N 53°31' E 008°35'2 2.8
2014-Nov-25 15:00N 53°30' E 008°36'2 3.2 100 / 41026.6 4.7 4.1 9.7
2014-Nov-25 14:31N 53°31' E 008°35'2 2.8
2014-Nov-25 14:00N 53°30' E 008°36'2 3.1 100 / 41027.0 5.6 5.0 9.6
2014-Nov-25 13:31N 53°31' E 008°35'2 2.9
2014-Nov-25 13:00N 53°30' E 008°36'2 3.5 1027.7 5.4 4.8 9.7
2014-Nov-25 12:33N 53°31' E 008°35'2 2.6
2014-Nov-25 12:00N 53°30' E 008°36'2 3.1 120 / 41027.9 5.3 4.8 9.7
2014-Nov-25 11:30N 53°31' E 008°35'2 2.9
2014-Nov-25 11:00N 53°30' E 008°36'2 3.3 110 / 41027.8 4.5 3.9 9.7
2014-Nov-25 10:33N 53°31' E 008°35'2 2.7
2014-Nov-25 10:00N 53°30' E 008°36'2 3.3 999 / 21027.6 4.3 3.7 9.7
2014-Nov-25 09:32N 53°31' E 008°35'2 2.8
2014-Nov-25 09:00N 53°30' E 008°36'2 2.9 1027.1 3.2 2.5 9.8
2014-Nov-25 08:29N 53°31' E 008°35'2 3.1
2014-Nov-25 08:00N 53°30' E 008°36'2 3.2 1027.0 3.5 2.9 9.8
2014-Nov-25 07:31N 53°31' E 008°35'2 2.8
2014-Nov-25 07:00N 53°30' E 008°36'2 3.2 1026.3 4.1 3.5 9.8
2014-Nov-25 06:31N 53°31' E 008°35'2 2.9
2014-Nov-25 06:00N 53°30' E 008°36'2 3.5 1026.4 4.1 3.4 9.8
2014-Nov-25 05:33N 53°31' E 008°35'2 2.7
2014-Nov-25 05:00N 53°30' E 008°36'2 3.4 190 / 41026.0 4.1 3.4 9.7
2014-Nov-25 04:33N 53°31' E 008°35'2 2.7
2014-Nov-25 04:00N 53°30' E 008°36'2 3.3 1025.6 4.1 3.5 9.7
2014-Nov-25 03:33N 53°31' E 008°35'2 2.7
2014-Nov-25 03:00N 53°30' E 008°36'2 3.3 1025.6 4.4 3.7 9.7
2014-Nov-25 02:32N 53°31' E 008°35'2 2.8
2014-Nov-25 02:00N 53°30' E 008°36'2 3.2 210 / 41025.8 4.8 4.1 9.7
2014-Nov-25 01:32N 53°31' E 008°35'2 2.8
2014-Nov-25 01:00N 53°30' E 008°36'2 3.2 250 / 41025.7 6.6 5.8 9.7
2014-Nov-25 00:31N 53°31' E 008°35'2 2.8
2014-Nov-25 00:00N 53°30' E 008°36'2 3.1 1025.3 6.1 5.4 9.6
2014-Nov-24 23:31N 53°31' E 008°35'2 2.9
2014-Nov-24 23:00N 53°30' E 008°36'2 3.5 270 / 61025.6 8.1 7.4 9.7
2014-Nov-24 22:33N 53°31' E 008°35'2 2.6
2014-Nov-24 22:00N 53°30' E 008°36'2 3.4 260 / 81025.0 7.9 7.0 9.7
2014-Nov-24 21:33N 53°31' E 008°35'2 2.7
2014-Nov-24 21:00N 53°30' E 008°36'2 3.4 260 / 101024.9 7.9 7.1 9.6
2014-Nov-24 20:33N 53°31' E 008°35'2 2.7
2014-Nov-24 20:00N 53°30' E 008°36'2 3.3 240 / 101024.2 7.9 7.0 9.6
2014-Nov-24 19:32N 53°31' E 008°35'2 2.8
2014-Nov-24 19:00N 53°30' E 008°36'2 3.2 220 / 81023.4 7.2 6.3 9.7
2014-Nov-24 18:32N 53°31' E 008°35'2 2.8
2014-Nov-24 18:00N 53°30' E 008°36'2 3.2 250 / 101022.9 8.5 7.5 9.6
2014-Nov-24 17:31N 53°31' E 008°35'2 2.8
2014-Nov-24 17:00N 53°30' E 008°36'2 3.1 240 / 101022.6 8.5 7.3 9.7
2014-Nov-24 16:31N 53°31' E 008°35'2 2.9
2014-Nov-24 16:00N 53°30' E 008°36'2 3.5 250 / 101022.6 9.0 7.1 9.8
2014-Nov-24 15:33N 53°31' E 008°35'2 2.7
2014-Nov-24 15:00N 53°30' E 008°36'2 3.4 260 / 101022.7 9.2 7.4 9.6
2014-Nov-24 14:33N 53°31' E 008°35'2 2.7
2014-Nov-24 14:00N 53°30' E 008°36'2 3.3 250 / 81022.4 10.0 6.9 9.5
2014-Nov-24 13:33N 53°31' E 008°35'2 2.7
2014-Nov-24 13:00N 53°30' E 008°36'2 3.3 250 / 121022.7 10.0 6.3 9.5
2014-Nov-24 12:32N 53°31' E 008°35'2 2.8
2014-Nov-24 12:00N 53°30' E 008°36'2 3.2 260 / 81022.6 10.0 6.5 9.6
2014-Nov-24 11:32N 53°31' E 008°35'2 2.8
2014-Nov-24 11:00N 53°30' E 008°36'2 3.2 260 / 81022.0 9.5 6.7 9.6
2014-Nov-24 10:31N 53°31' E 008°35'2 2.8
2014-Nov-24 10:00N 53°30' E 008°36'2 3.1 260 / 81020.6 8.8 7.6 9.6
2014-Nov-24 09:31N 53°31' E 008°35'2 2.9
2014-Nov-24 09:00N 53°30' E 008°36'2 3.4 260 / 81019.5 8.3 7.6 9.6
2014-Nov-24 08:33N 53°31' E 008°35'2 2.7
2014-Nov-24 08:00N 53°30' E 008°36'2 3.4 270 / 81018.7 8.1 7.4 9.6
2014-Nov-24 07:33N 53°31' E 008°35'2 2.7
2014-Nov-24 07:00N 53°30' E 008°36'2 3.3 270 / 81017.6 8.3 7.6 9.7
2014-Nov-24 06:33N 53°31' E 008°35'2 2.7
2014-Nov-24 06:00N 53°30' E 008°36'2 3.3 270 / 101016.7 8.6 7.9 9.6
2014-Nov-24 05:32N 53°31' E 008°35'2 2.8
2014-Nov-24 05:00N 53°30' E 008°36'2 3.2 290 / 121015.4 8.8 8.2 9.9
2014-Nov-24 04:32N 53°31' E 008°35'2 2.8
2014-Nov-24 04:00N 53°30' E 008°36'2 3.2 270 / 81014.2 9.3 8.7 9.9
2014-Nov-24 03:31N 53°31' E 008°35'2 2.8
2014-Nov-24 03:00N 53°30' E 008°36'2 3.1 300 / 141013.5 9.4 8.7 9.9
2014-Nov-24 02:31N 53°31' E 008°35'2 2.9
2014-Nov-24 02:00N 53°30' E 008°36'2 3.4 230 / 61013.1 10.3 9.6 9.8
2014-Nov-24 01:33N 53°31' E 008°35'2 2.7
2014-Nov-24 01:00N 53°30' E 008°36'2 3.4 200 / 41013.4 10.9 9.1 9.7
2014-Nov-24 00:33N 53°31' E 008°35'2 2.7
2014-Nov-24 00:00N 53°30' E 008°36'2 3.3 190 / 41013.3 10.8 8.3 9.8
2014-Nov-23 23:33N 53°31' E 008°35'2 2.7
2014-Nov-23 23:00N 53°30' E 008°36'2 3.3 160 / 61013.3 11.1 8.3 9.9
2014-Nov-23 22:32N 53°31' E 008°35'2 2.8
2014-Nov-23 22:00N 53°30' E 008°36'2 3.2 150 / 61013.5 10.6 8.2 9.8
2014-Nov-23 21:32N 53°31' E 008°35'2 2.8
2014-Nov-23 21:00N 53°30' E 008°36'2 3.2 150 / 81013.7 10.3 8.1 9.8
2014-Nov-23 20:31N 53°31' E 008°35'2 2.8
2014-Nov-23 20:00N 53°30' E 008°36'2 3.1 140 / 61014.1 10.3 7.9 9.8
2014-Nov-23 19:31N 53°31' E 008°35'2 2.9
2014-Nov-23 19:00N 53°30' E 008°36'2 3.4 140 / 81014.1 10.5 7.9 9.8
2014-Nov-23 18:33N 53°31' E 008°35'2 2.7
2014-Nov-23 18:00N 53°30' E 008°36'2 3.4 140 / 61014.5 10.8 8.4 9.8
2014-Nov-23 17:33N 53°31' E 008°35'2 2.7
2014-Nov-23 17:00N 53°30' E 008°36'2 3.3 140 / 81014.8 10.6 8.7 9.8
2014-Nov-23 16:33N 53°31' E 008°35'2 2.7
2014-Nov-23 16:00N 53°30' E 008°36'2 3.3 130 / 81015.6 10.9 9.2 9.7
2014-Nov-23 15:32N 53°31' E 008°35'2 2.8
2014-Nov-23 15:00N 53°30' E 008°36'2 3.2 140 / 61016.3 11.2 9.6 9.8
2014-Nov-23 14:32N 53°31' E 008°35'2 2.8
2014-Nov-23 14:00N 53°30' E 008°36'2 3.2 130 / 81017.5 11.2 9.9 9.8
2014-Nov-23 13:31N 53°31' E 008°35'2 2.8
2014-Nov-23 13:00N 53°30' E 008°36'2 3.1 130 / 81018.3 11.1 9.6 9.7
2014-Nov-23 12:31N 53°31' E 008°35'2 2.9
2014-Nov-23 12:00N 53°30' E 008°36'2 3.4 130 / 81019.1 10.1 9.1 9.8
2014-Nov-23 11:33N 53°31' E 008°35'2 2.7
2014-Nov-23 11:00N 53°30' E 008°36'2 3.4 130 / 81019.4 8.9 8.2 9.8
2014-Nov-23 10:33N 53°31' E 008°35'2 2.7
2014-Nov-23 10:00N 53°30' E 008°36'2 3.3 130 / 81019.4 8.2 7.5 9.8
2014-Nov-23 09:32N 53°31' E 008°35'2 2.7
2014-Nov-23 09:00N 53°30' E 008°36'2 3.3 130 / 61019.0 7.1 6.4 9.9
2014-Nov-23 08:32N 53°31' E 008°35'2 2.8
2014-Nov-23 08:00N 53°30' E 008°36'2 3.2 130 / 61019.1 6.6 5.9 9.9
2014-Nov-23 07:32N 53°31' E 008°35'2 2.8
2014-Nov-23 07:00N 53°30' E 008°36'2 3.2 130 / 61019.3 6.4 5.8 9.8
2014-Nov-23 06:31N 53°31' E 008°35'2 2.8
2014-Nov-23 06:00N 53°30' E 008°36'2 3.1 120 / 61018.8 6.2 5.5 9.8
2014-Nov-23 05:31N 53°31' E 008°35'2 2.9
2014-Nov-23 05:00N 53°30' E 008°36'2 3.4 130 / 61019.1 6.3 5.7 9.9
2014-Nov-23 04:33N 53°31' E 008°35'2 2.7
2014-Nov-23 04:00N 53°30' E 008°36'2 3.4 130 / 61019.1 6.0 5.4 9.9
2014-Nov-23 03:33N 53°31' E 008°35'2 2.7
2014-Nov-23 03:00N 53°30' E 008°36'2 3.3 130 / 61019.2 6.1 5.4 9.7
2014-Nov-23 02:32N 53°31' E 008°35'2 2.7
2014-Nov-23 02:00N 53°30' E 008°36'2 3.3 130 / 61019.4 5.9 5.2 9.8
2014-Nov-23 01:32N 53°31' E 008°35'2 2.8
2014-Nov-23 01:00N 53°30' E 008°36'2 3.2 130 / 61019.2 5.7 5.0 9.7
2014-Nov-23 00:32N 53°31' E 008°35'0 0.0
2014-Nov-22 23:31N 53°31' E 008°35'0 0.0
2014-Nov-22 22:31N 53°31' E 008°35'0 0.0
2014-Nov-22 21:33N 53°31' E 008°35'2 2.7
2014-Nov-22 21:00N 53°30' E 008°36'2 3.4 130 / 101019.1 6.2 5.5 9.8
2014-Nov-22 20:33N 53°31' E 008°35'2 2.7
2014-Nov-22 20:00N 53°30' E 008°36'2 3.3 120 / 101019.0 6.1 5.3 9.9
2014-Nov-22 19:33N 53°31' E 008°35'2 2.7
2014-Nov-22 19:00N 53°30' E 008°36'2 3.3 120 / 81019.1 6.0 5.3 9.8
2014-Nov-22 18:32N 53°31' E 008°35'2 2.8
2014-Nov-22 18:00N 53°30' E 008°36'2 2.9 120 / 81019.3 6.3 5.4 9.8
2014-Nov-22 17:29N 53°31' E 008°35'2 3.1
2014-Nov-22 17:00N 53°30' E 008°36'2 3.2 120 / 81019.8 6.3 5.5 9.8
2014-Nov-22 16:31N 53°31' E 008°35'2 2.8
2014-Nov-22 16:00N 53°30' E 008°36'2 3.1 120 / 81019.6 6.3 5.6 9.9
2014-Nov-22 15:31N 53°31' E 008°35'2 2.9
2014-Nov-22 15:00N 53°30' E 008°36'2 3.4 130 / 81019.6 6.7 5.8 9.8
2014-Nov-22 14:33N 53°31' E 008°35'2 2.7
2014-Nov-22 14:00N 53°30' E 008°36'2 3.4 130 / 81019.6 6.4 5.7 9.8
2014-Nov-22 13:33N 53°31' E 008°35'2 2.7
2014-Nov-22 13:00N 53°30' E 008°36'2 3.3 130 / 101020.3 6.0 5.3 9.8
2014-Nov-22 12:32N 53°31' E 008°35'2 2.7
2014-Nov-22 12:00N 53°30' E 008°36'2 3.3 110 / 61021.0 5.6 4.9 9.8
2014-Nov-22 11:32N 53°31' E 008°35'2 2.8
2014-Nov-22 11:00N 53°30' E 008°36'2 3.2 130 / 61021.4 5.7 4.2 9.8
2014-Nov-22 10:32N 53°31' E 008°35'2 2.8
2014-Nov-22 10:00N 53°30' E 008°36'2 2.9 120 / 121021.4 5.2 3.9 9.8
2014-Nov-22 09:28N 53°31' E 008°35'2 3.2
2014-Nov-22 09:00N 53°30' E 008°36'2 3.1 120 / 101021.1 4.7 3.9 9.9
2014-Nov-22 08:31N 53°31' E 008°35'2 2.9
2014-Nov-22 08:00N 53°30' E 008°36'2 3.4 120 / 121021.3 4.5 3.6 9.9
2014-Nov-22 07:33N 53°31' E 008°35'2 2.7
2014-Nov-22 07:00N 53°30' E 008°36'2 3.4 120 / 81021.1 4.2 3.6 9.9
2014-Nov-22 06:33N 53°31' E 008°35'0 0.0
2014-Nov-22 05:32N 53°31' E 008°35'0 0.0
2014-Nov-22 04:32N 53°31' E 008°35'2 2.8
2014-Nov-22 04:00N 53°30' E 008°36'2 3.2 100 / 61022.1 2.3 1.7 9.8
2014-Nov-22 03:32N 53°31' E 008°35'2 2.8
2014-Nov-22 03:00N 53°30' E 008°36'2 3.2 090 / 61022.4 1.9 1.3 9.9
2014-Nov-22 02:31N 53°31' E 008°35'2 2.8
2014-Nov-22 02:00N 53°30' E 008°36'2 3.1 100 / 61022.8 1.7 1.2 9.9
2014-Nov-22 01:31N 53°31' E 008°35'2 2.9
2014-Nov-22 01:00N 53°30' E 008°36'2 3.4 100 / 61022.9 1.4 0.8 9.9
2014-Nov-22 00:33N 53°31' E 008°35'2 2.7
2014-Nov-22 00:00N 53°30' E 008°36'2 3.4 090 / 61023.4 1.2 0.6 9.9
2014-Nov-21 23:33N 53°31' E 008°35'2 2.7
2014-Nov-21 23:00N 53°30' E 008°36'2 3.3 090 / 61023.8 0.7 0.1 9.9
2014-Nov-21 22:32N 53°31' E 008°35'2 2.7
2014-Nov-21 22:00N 53°30' E 008°36'2 3.3 090 / 41023.9 0.4-0.110.0
2014-Nov-21 21:32N 53°31' E 008°35'2 2.8
2014-Nov-21 21:00N 53°30' E 008°36'2 3.2 090 / 61023.8 0.4-0.210.0
2014-Nov-21 20:32N 53°31' E 008°35'2 2.8
2014-Nov-21 20:00N 53°30' E 008°36'2 3.2 090 / 61024.1 0.4-0.110.1
2014-Nov-21 19:31N 53°31' E 008°35'2 2.8
2014-Nov-21 19:00N 53°30' E 008°36'2 3.1 090 / 41024.1 0.6-0.010.0
2014-Nov-21 18:31N 53°31' E 008°35'0 0.0
2014-Nov-21 17:30N 53°31' E 008°35'2 2.9
2014-Nov-21 17:00N 53°30' E 008°36'2 3.4 090 / 41024.2 0.9 0.210.1
2014-Nov-21 16:33N 53°31' E 008°35'2 2.7
2014-Nov-21 16:00N 53°30' E 008°36'2 3.3 090 / 61024.7 1.5 1.010.1
2014-Nov-21 15:32N 53°31' E 008°35'2 2.7
2014-Nov-21 15:00N 53°30' E 008°36'2 3.3 090 / 41025.3 2.5 1.910.1
2014-Nov-21 14:32N 53°31' E 008°35'2 2.8
2014-Nov-21 14:00N 53°30' E 008°36'2 3.2 070 / 61026.1 2.9 2.310.1
2014-Nov-21 13:32N 53°31' E 008°35'2 2.8
2014-Nov-21 13:00N 53°30' E 008°36'2 3.2 070 / 41026.8 2.8 2.210.1
2014-Nov-21 12:31N 53°31' E 008°35'2 2.9
2014-Nov-21 12:00N 53°30' E 008°36'2 3.1 100 / 41026.7 2.7 2.010.1
2014-Nov-21 11:31N 53°31' E 008°35'2 2.9
2014-Nov-21 11:00N 53°30' E 008°36'2 3.4 1027.1 1.6 1.010.0
2014-Nov-21 10:33N 53°31' E 008°35'2 2.7
2014-Nov-21 10:00N 53°30' E 008°36'2 3.4 110 / 41027.1 -0.1-0.810.1
2014-Nov-21 09:33N 53°31' E 008°35'2 2.7
2014-Nov-21 09:00N 53°30' E 008°36'2 3.3 120 / 41026.5 -0.0-0.710.2
2014-Nov-21 08:32N 53°31' E 008°35'2 2.7
2014-Nov-21 08:00N 53°30' E 008°36'2 2.9 1025.6 -0.7-1.410.1
2014-Nov-21 07:29N 53°31' E 008°35'2 3.1
2014-Nov-21 07:00N 53°30' E 008°36'2 3.2 110 / 41025.8 -0.9-1.510.2
2014-Nov-21 06:31N 53°31' E 008°35'2 2.8
2014-Nov-21 06:00N 53°30' E 008°36'2 3.2 1026.1 -0.5-1.110.3
2014-Nov-21 05:31N 53°31' E 008°35'2 2.9
2014-Nov-21 05:00N 53°30' E 008°36'2 3.1 1026.3 -0.8-1.410.3
2014-Nov-21 04:31N 53°31' E 008°35'2 2.9
2014-Nov-21 04:00N 53°30' E 008°36'2 3.4 1026.5 -0.4-1.110.2
2014-Nov-21 03:33N 53°31' E 008°35'2 2.7
2014-Nov-21 03:00N 53°30' E 008°36'2 3.4 1026.8 0.2-0.510.2
2014-Nov-21 02:33N 53°31' E 008°35'2 2.7
2014-Nov-21 02:00N 53°30' E 008°36'2 3.3 1027.3 0.2-0.510.2
2014-Nov-21 01:32N 53°31' E 008°35'2 2.7
2014-Nov-21 01:00N 53°30' E 008°36'2 3.3 1027.3 0.6-0.110.2
2014-Nov-21 00:32N 53°31' E 008°35'2 2.8
2014-Nov-21 00:00N 53°30' E 008°36'2 3.2 1027.8 1.1 0.410.2
2014-Nov-20 23:31N 53°31' E 008°35'2 2.8
2014-Nov-20 23:00N 53°30' E 008°36'2 3.2 1028.2 2.0 1.310.3
2014-Nov-20 22:31N 53°31' E 008°35'2 2.9
2014-Nov-20 22:00N 53°30' E 008°36'2 3.1 1028.0 3.2 2.510.4
2014-Nov-20 21:31N 53°31' E 008°35'2 2.9
2014-Nov-20 21:00N 53°30' E 008°36'2 3.4 999 / 21027.8 4.4 3.710.4
2014-Nov-20 20:33N 53°31' E 008°35'2 2.7
2014-Nov-20 20:00N 53°30' E 008°36'2 3.4 1027.8 5.3 4.610.5
2014-Nov-20 19:33N 53°31' E 008°35'2 2.7
2014-Nov-20 19:00N 53°30' E 008°36'2 3.3 1027.7 5.5 4.810.6
2014-Nov-20 18:32N 53°31' E 008°35'2 2.7
2014-Nov-20 18:00N 53°30' E 008°36'2 3.3 1028.1 6.2 5.410.6
2014-Nov-20 17:32N 53°31' E 008°35'2 2.8
2014-Nov-20 17:00N 53°30' E 008°36'2 3.2 1027.7 6.4 5.710.5
2014-Nov-20 16:31N 53°31' E 008°35'2 2.8
2014-Nov-20 16:00N 53°30' E 008°36'2 3.2 1027.8 7.0 6.210.5
2014-Nov-20 15:31N 53°31' E 008°35'0 0.0
2014-Nov-20 14:31N 53°31' E 008°35'2 2.9
2014-Nov-20 14:00N 53°30' E 008°36'2 3.4 1028.8 8.5 6.210.5
2014-Nov-20 13:33N 53°31' E 008°35'2 2.7
2014-Nov-20 13:00N 53°30' E 008°36'2 3.4 1028.8 8.3 5.310.5
2014-Nov-20 12:33N 53°31' E 008°35'2 2.7
2014-Nov-20 12:00N 53°30' E 008°36'2 3.0 1029.1 8.3 6.010.5
2014-Nov-20 11:29N 53°31' E 008°35'2 3.0
2014-Nov-20 11:00N 53°30' E 008°36'2 2.9 1029.0 8.3 7.510.4
2014-Nov-20 10:29N 53°31' E 008°35'2 3.1
2014-Nov-20 10:00N 53°30' E 008°36'2 3.2 120 / 41029.2 7.7 7.010.4
2014-Nov-20 09:31N 53°31' E 008°35'2 2.8
2014-Nov-20 09:00N 53°30' E 008°36'2 3.2 1029.1 7.6 6.810.4
2014-Nov-20 08:31N 53°31' E 008°35'2 2.9
2014-Nov-20 08:00N 53°30' E 008°36'2 3.1 1028.6 7.1 6.410.4
2014-Nov-20 07:31N 53°31' E 008°35'2 2.9
2014-Nov-20 07:00N 53°30' E 008°36'2 3.4 1027.8 7.0 6.310.5
2014-Nov-20 06:33N 53°31' E 008°35'2 2.7
2014-Nov-20 06:00N 53°30' E 008°36'2 3.4 1027.6 7.4 6.710.4
2014-Nov-20 05:33N 53°31' E 008°35'2 2.7
2014-Nov-20 05:00N 53°30' E 008°36'2 3.3 1027.5 7.1 6.510.4
2014-Nov-20 04:32N 53°31' E 008°35'2 2.7
2014-Nov-20 04:00N 53°30' E 008°36'2 3.2 1027.3 6.9 6.210.4
2014-Nov-20 03:32N 53°31' E 008°35'2 2.8
2014-Nov-20 03:00N 53°30' E 008°36'2 3.2 1027.5 7.1 6.410.5
2014-Nov-20 02:31N 53°31' E 008°35'2 2.8
2014-Nov-20 02:00N 53°30' E 008°36'2 2.9 1027.3 7.0 6.310.4
2014-Nov-20 01:28N 53°31' E 008°35'2 3.2
2014-Nov-20 01:00N 53°30' E 008°36'2 3.5 1026.8 7.1 6.410.4
2014-Nov-20 00:34N 53°31' E 008°35'2 2.6
2014-Nov-20 00:00N 53°30' E 008°36'2 3.4 1026.8 7.2 6.510.4
2014-Nov-19 23:33N 53°31' E 008°35'2 2.7
2014-Nov-19 23:00N 53°30' E 008°36'2 3.4 1026.5 7.5 6.710.4
2014-Nov-19 22:33N 53°31' E 008°35'2 2.7
2014-Nov-19 22:00N 53°30' E 008°36'2 3.3 1026.1 7.5 6.810.4
2014-Nov-19 21:32N 53°31' E 008°35'2 2.7
2014-Nov-19 21:00N 53°30' E 008°36'2 3.3 1025.8 7.6 6.810.5
2014-Nov-19 20:32N 53°31' E 008°35'2 2.8
2014-Nov-19 20:00N 53°30' E 008°36'2 3.2 1025.4 7.8 7.010.5
2014-Nov-19 19:31N 53°31' E 008°35'2 2.8
2014-Nov-19 19:00N 53°30' E 008°36'2 3.2 1024.7 7.8 7.110.5
2014-Nov-19 18:31N 53°31' E 008°35'2 2.9
2014-Nov-19 18:00N 53°30' E 008°36'2 3.5 1024.4 8.1 7.210.5
2014-Nov-19 17:34N 53°31' E 008°35'2 2.6
2014-Nov-19 17:00N 53°30' E 008°36'2 3.4 1023.9 8.2 7.210.4
2014-Nov-19 16:33N 53°31' E 008°35'2 2.7
2014-Nov-19 16:00N 53°30' E 008°36'2 3.4 1023.2 8.2 7.310.5
2014-Nov-19 15:33N 53°31' E 008°35'2 2.7
2014-Nov-19 15:00N 53°30' E 008°36'2 3.3 1023.0 8.4 7.610.6
2014-Nov-19 14:32N 53°31' E 008°35'2 2.8
2014-Nov-19 14:00N 53°30' E 008°36'2 3.2 070 / 41022.3 8.4 7.610.5
2014-Nov-19 13:32N 53°31' E 008°35'2 2.8
2014-Nov-19 13:00N 53°30' E 008°36'2 3.2 060 / 41021.7 8.5 7.710.5
2014-Nov-19 12:31N 53°31' E 008°35'2 2.8
2014-Nov-19 12:00N 53°30' E 008°36'2 3.2 060 / 41021.3 8.4 7.710.6
2014-Nov-19 11:31N 53°31' E 008°35'2 2.9
2014-Nov-19 11:00N 53°30' E 008°36'2 3.5 050 / 41020.8 8.1 7.410.5
2014-Nov-19 10:34N 53°31' E 008°35'2 2.6
2014-Nov-19 10:00N 53°30' E 008°36'2 2.8 050 / 41020.9 8.0 7.310.8
2014-Nov-19 09:27N 53°31' E 008°35'2 3.3
2014-Nov-19 09:00N 53°30' E 008°36'2 3.4 1020.0 7.8 7.110.7
2014-Nov-19 08:33N 53°31' E 008°35'2 2.7
2014-Nov-19 08:00N 53°30' E 008°36'2 3.3 030 / 41019.2 7.9 7.210.7
2014-Nov-19 07:32N 53°31' E 008°35'2 2.8
2014-Nov-19 07:00N 53°30' E 008°36'2 3.2 1018.3 8.0 7.210.7
2014-Nov-19 06:32N 53°31' E 008°35'2 2.8
2014-Nov-19 06:00N 53°30' E 008°36'2 3.2 030 / 41017.5 7.9 7.210.7
2014-Nov-19 05:31N 53°31' E 008°35'2 2.8
2014-Nov-19 05:00N 53°30' E 008°36'2 3.2 040 / 41017.0 7.9 7.110.6
2014-Nov-19 04:31N 53°31' E 008°35'2 2.9
2014-Nov-19 04:00N 53°30' E 008°36'2 3.5 060 / 41016.4 7.8 6.810.6
2014-Nov-19 03:34N 53°31' E 008°35'2 2.6
2014-Nov-19 03:00N 53°30' E 008°36'2 3.4 070 / 61016.1 7.6 6.810.6
2014-Nov-19 02:33N 53°31' E 008°35'2 2.7
2014-Nov-19 02:00N 53°30' E 008°36'2 3.3 070 / 61015.9 7.3 6.510.7
2014-Nov-19 01:33N 53°31' E 008°35'2 2.7
2014-Nov-19 01:00N 53°30' E 008°36'2 3.3 070 / 41015.6 7.0 6.310.7
2014-Nov-19 00:32N 53°31' E 008°35'2 2.8
2014-Nov-19 00:00N 53°30' E 008°36'2 3.2 070 / 41015.2 6.9 6.210.7
2014-Nov-18 23:32N 53°31' E 008°35'2 2.8
2014-Nov-18 23:00N 53°30' E 008°36'2 3.2 070 / 61015.1 7.2 6.510.7
2014-Nov-18 22:31N 53°31' E 008°35'2 2.8
2014-Nov-18 22:00N 53°30' E 008°36'2 3.1 080 / 61014.7 7.4 6.610.7
2014-Nov-18 21:31N 53°31' E 008°35'2 2.9
2014-Nov-18 21:00N 53°30' E 008°36'2 3.5 090 / 81014.3 7.7 6.710.7
2014-Nov-18 20:33N 53°31' E 008°35'2 2.7
2014-Nov-18 20:00N 53°30' E 008°36'2 3.4 080 / 61013.8 7.9 6.910.6
2014-Nov-18 19:33N 53°31' E 008°35'2 2.7
2014-Nov-18 19:00N 53°30' E 008°36'2 3.3 090 / 81013.3 8.2 7.310.5
2014-Nov-18 18:33N 53°31' E 008°35'2 2.7
2014-Nov-18 18:00N 53°30' E 008°36'2 3.3 080 / 81013.0 8.5 7.710.4
2014-Nov-18 17:32N 53°31' E 008°35'2 2.8
2014-Nov-18 17:00N 53°30' E 008°36'2 4.7 070 / 61012.8 8.8 8.010.1
2014-Nov-18 16:33N 53°32' E 008°35'5 8.8
2014-Nov-18 16:00N 53°36' E 008°30'1 1.2 050 / 101013.0 9.0 8.310.2
2014-Nov-18 15:33N 53°36' E 008°30'915.7
2014-Nov-18 15:00N 53°42' E 008°18'1 1.3 060 / 161013.0 9.2 8.5 9.7
2014-Nov-18 14:33N 53°43' E 008°18'915.9
2014-Nov-18 14:00N 53°48' E 008°06'1 2.4 060 / 191013.0 9.4 8.610.3
2014-Nov-18 13:33N 53°49' E 008°07'711.7
2014-Nov-18 13:00N 53°54' E 008°00'6 7.0 070 / 211013.6 9.6 8.811.7
2014-Nov-18 12:10N 53°60' E 008°03'739.7
2014-Nov-18 12:00N 54°06' E 008°06'1 2.2 070 / 171014.5 9.6 8.913.0
2014-Nov-18 11:34N 54°06' E 008°07'915.6
2014-Nov-18 11:00N 54°12' E 008°18'3 7.7 060 / 171015.0 9.3 8.512.2
2014-Nov-18 10:33N 54°15' E 008°17'1017.4
2014-Nov-18 10:00N 54°24' E 008°24'4 7.8 060 / 161014.6 9.2 8.510.2
2014-Nov-18 09:30N 54°22' E 008°30'2 4.3
2014-Nov-18 09:00N 54°24' E 008°30'2 3.4 050 / 141014.4 8.9 8.3 9.8
2014-Nov-18 08:28N 54°23' E 008°32'2 3.7
2014-Nov-18 08:00N 54°24' E 008°30'0 0.0 060 / 141014.2 8.9 8.2 9.9
2014-Nov-18 07:00N 54°24' E 008°30'2 2.6 070 / 101013.5 8.7 8.0 9.8
2014-Nov-18 06:18N 54°23' E 008°32'2 5.9
2014-Nov-18 06:00N 54°24' E 008°30'2 4.0 060 / 121014.1 8.7 7.9 9.9
2014-Nov-18 05:33N 54°23' E 008°32'2 3.3
2014-Nov-18 05:00N 54°24' E 008°30'2 3.2 070 / 101014.2 8.8 8.010.0
2014-Nov-18 04:26N 54°23' E 008°32'2 4.0
2014-Nov-18 04:00N 54°24' E 008°30'2 3.4 070 / 141013.9 8.2 7.5 9.9
2014-Nov-18 03:29N 54°23' E 008°32'2 3.6
2014-Nov-18 03:00N 54°24' E 008°30'2 2.3 090 / 121013.9 8.0 7.3 9.8
2014-Nov-18 02:13N 54°23' E 008°32'2 7.7
2014-Nov-18 02:00N 54°24' E 008°30'0 0.0 080 / 141013.8 8.2 7.5 9.8
2014-Nov-18 01:00N 54°24' E 008°30'0 0.0 080 / 161013.4 8.2 7.5 9.9
2014-Nov-18 00:00N 54°24' E 008°30'0 0.0 080 / 161013.1 7.8 7.1 9.9
2014-Nov-17 23:00N 54°24' E 008°30'2 2.7 090 / 161013.1 7.5 6.9 9.9
2014-Nov-17 22:21N 54°23' E 008°32'0 0.0
2014-Nov-17 21:26N 54°23' E 008°32'0 0.0
2014-Nov-17 20:32N 54°23' E 008°32'2 3.2
2014-Nov-17 20:00N 54°24' E 008°30'   090 / 161011.5 7.5 6.710.0

Dump ship's entire track history